Nearby METAR Reports

 

KSJC - San Jose, California, USA
Distance from station: NØ 14km
Opdateret: 18/01/2019 10:53
Klart
Klart
 Vind retning Ø
Vind: Ø 6 km/h
Temperatur: 11°C
Dugpunkt: 10°C
Fugtighed: 94%
Barometer: 1025.7 hPa
Clouds: Klart
Visibility: 16 km
2019/01/18 09:53 KSJC 180953Z AUTO 08003KT 10SM CLR 11/10 A3029 RMK AO2 SLP255 T01110100
KNUQ - Moffett Nas/Mtn, California, USA
Distance from station: N 14km
Opdateret: 18/01/2019 10:56
Klart
Klart
 Vind retning calm
Vind: Vindstille
Temperatur: 12°C
Dugpunkt: 9°C
Fugtighed: 82%
Barometer: 1025.7 hPa
Clouds: Klart
Visibility: 16 km
2019/01/18 09:56 KNUQ 180956Z AUTO 00000KT 10SM CLR 12/09 A3029 RMK AO2 SLP260 T01170094
 
KPAO - Palo Alto, California, USA
Distance from station: NNV 23km
Opdateret: 18/01/2019 05:47
NOT Current
Mest skyet
Mest skyet
 Vind retning calm
Vind: Vindstille
Temperatur: 13°C
Dugpunkt: 10°C
Fugtighed: 82%
Barometer: 1023 hPa
Clouds: Mest skyet
Visibility: 16 km
Cloud details: Mest skyet 2134 m
2019/01/18 04:47 KPAO 180447Z 00000KT 10SM BKN070 13/10 A3021
KRHV - San Jose/Reid, California, USA
Distance from station: ØNØ 19km
Opdateret: 17/01/2019 00:50
NOT Current
Overskyet
Overskyet
 Vind retning SØ
Vind: SØ 33 km/h
Temperatur: 15°C
Dugpunkt: 12°C
Fugtighed: 82%
Barometer: 1010.2 hPa
Clouds: Overskyet
Visibility: 3 km
Cloud details: Few Clouds 610 m
Mest skyet 1219 m
Overskyet 2438 m
2019/01/16 23:50 KRHV 162350Z 13018KT 2SM FEW020 BKN040 OVC080 15/12 A2983 RA
 
KOAK - Oakland, California, USA
Distance from station: NNV 50km
Opdateret: 18/01/2019 10:53
Overskyet
Overskyet
 Vind retning Ø
Vind: Ø 6 km/h
Temperatur: 11°C
Dugpunkt: 9°C
Fugtighed: 88%
Barometer: 1025.4 hPa
Clouds: Overskyet
Visibility: 14 km
Cloud details: Few Clouds 457 m
Delvist skyet 914 m
Mest skyet 3658 m
Overskyet 6096 m
2019/01/18 09:53 KOAK 180953Z 08003KT 9SM FEW015 SCT030 BKN120 OVC200 11/09 A3028 RMK AO2 SLP253 T01110094
KSQL - San Carlos Airpo, California, USA
Distance from station: NV 34km
Opdateret: 18/01/2019 10:55
Few Clouds
Few Clouds
 Vind retning V
Vind: V 6 km/h
Temperatur: 11°C
Dugpunkt: 10°C
Fugtighed: 94%
Barometer: 1025.7 hPa
Clouds: Few Clouds
Visibility: 13 km
Cloud details: Few Clouds 3658 m
2019/01/18 09:55 KSQL 180955Z AUTO 28003KT 8SM FEW120 11/10 A3029 RMK AO2
 
KSFO - San Francisco, California, USA
Distance from station: NV 49km
Opdateret: 18/01/2019 10:56
Mest skyet
Mest skyet
 Vind retning S
Vind: S 7 km/h
Temperatur: 14°C
Dugpunkt: 10°C
Fugtighed: 77%
Barometer: 1025.1 hPa
Clouds: Mest skyet
Visibility: 16 km
Cloud details: Few Clouds 1829 m
Mest skyet 3658 m
2019/01/18 09:56 KSFO 180956Z 18004KT 10SM FEW060 BKN120 14/10 A3027 RMK AO2 SLP249 T01440100
KE16 - San Martin, California, USA
Distance from station: ØSØ 43km
Opdateret: 18/01/2019 10:50
Mist, Mest skyet
Mist, Mest skyet
 Vind retning calm
Vind: Vindstille
Temperatur: 10°C
Dugpunkt: 10°C
Fugtighed: 100%
Barometer: 1026.1 hPa
Oversigt: Mist
Clouds: Mest skyet
Visibility: 6 km
Cloud details: Delvist skyet 518 m
Mest skyet 792 m
Mest skyet 3658 m
2019/01/18 09:50 KE16 180950Z AUTO 00000KT 4SM BR SCT017 BKN026 BKN120 10/10 A3030 RMK AO2 PWINO PNO
 
KWVI - Watsonville, California, USA
Distance from station: SSØ 44km
Opdateret: 18/01/2019 10:53
Delvist skyet
Delvist skyet
 Vind retning NNV
Vind: NNV 6 km/h
Temperatur: 11°C
Dugpunkt: 10°C
Fugtighed: 94%
Barometer: 1025.7 hPa
Clouds: Delvist skyet
Visibility: 16 km
Cloud details: Delvist skyet 3658 m
2019/01/18 09:53 KWVI 180953Z AUTO 33003KT 10SM SCT120 11/10 A3029 RMK AO2 SLP257 T01060100
KHAF - Half Moon Bay, California, USA
Distance from station: VNV 50km
Opdateret: 18/01/2019 10:55
Mist, Overskyet
Mist, Overskyet
 Vind retning calm
Vind: Vindstille
Temperatur: 11°C
Dugpunkt: 10°C
Fugtighed: 94%
Barometer: 1025.7 hPa
Oversigt: Mist
Clouds: Overskyet
Visibility: 2.8 km
Cloud details: Delvist skyet 91 m
Mest skyet 396 m
Overskyet 853 m
2019/01/18 09:55 KHAF 180955Z AUTO 00000KT 1 3/4SM BR SCT003 BKN013 OVC028 11/10 A3029 RMK AO2
 
KHWD - Hayward, California, USA
Distance from station: N 44km
Opdateret: 18/01/2019 10:54
Delvist skyet
Delvist skyet
 Vind retning Ø
Vind: Ø 7 km/h
Temperatur: 12°C
Dugpunkt: 9°C
Fugtighed: 82%
Barometer: 1025.4 hPa
Clouds: Delvist skyet
Visibility: 16 km
Cloud details: Delvist skyet 3658 m
2019/01/18 09:54 KHWD 180954Z AUTO 08004KT 10SM SCT120 12/09 A3028 RMK AO2 SLP262 T01220094
KLVK - Livermore, California, USA
Distance from station: NNØ 51km
Opdateret: 18/01/2019 10:53
Mest skyet
Mest skyet
 Vind retning calm
Vind: Vindstille
Temperatur: 10°C
Dugpunkt: 9°C
Fugtighed: 94%
Barometer: 1025.4 hPa
Clouds: Mest skyet
Visibility: 11 km
Cloud details: Mest skyet 3353 m
2019/01/18 09:53 KLVK 180953Z AUTO 00000KT 7SM BKN110 10/09 A3028 RMK AO2 SLP254 T01000089